National Weather Service United States Department of Commerce

Airport Observations and Forecasts (from NWS CLE)

Cleveland Hopkins International Airport

 

FAA details


000
FTUS41 KCLE 160525
TAFCLE
TAF
KCLE 160525Z 1606/1712 10004KT P6SM SKC
FM161700 05010KT P6SM SCT250
FM170000 09008KT P6SM SCT090 BKN200
FM170600 12008KT P6SM VCSH BKN050=

24 hours of observations

7-day forecast

Hourly - Tabular forecast  Hourly - Graph forecast

Terminal Information Board

Toledo Express Airport

 

FAA details


000
FTUS41 KCLE 160525
TAFTOL
TAF
KTOL 160525Z 1606/1706 10004KT P6SM SKC
FM160900 06008KT P6SM SCT250
FM161500 08012KT P6SM BKN120
FM170300 08013KT P6SM VCSH OVC090=

24 hours of observations

7-day forecast

Hourly - Tabular forecast  Hourly - Graph forecast

Terminal Information Board

Findlay Airport

 

FAA details


000
FTUS41 KCLE 160525
TAFFDY
TAF
KFDY 160525Z 1606/1706 01004KT P6SM SCT250
FM161200 08008KT P6SM BKN250
FM161900 09010KT P6SM VCSH BKN120
FM162300 11012KT P6SM OVC090
FM170300 13012KT P6SM VCSH BKN050=

24 hours of observations

7-day forecast

Hourly - Tabular forecast   Hourly - Graph forecast

Terminal Information Board

Mansfield Lahm Airport

 

FAA details


000
FTUS41 KCLE 160525
TAFMFD
TAF
KMFD 160525Z 1606/1706 13005KT P6SM SKC
FM161900 10008KT P6SM SCT100 BKN250
FM170500 13010KT P6SM VCSH OVC090=

24 hours of observations

7-day forecast

Hourly - Tabular forecast   Hourly - Graph forecast

Terminal Information Board

Akron-Canton Airport

 

FAA details


000
FTUS41 KCLE 160525
TAFCAK
TAF
KCAK 160525Z 1606/1706 11005KT P6SM SKC
FM162100 08008KT P6SM BKN250=

24 hours of observations

7-day forecast

Hourly - Tabular forecast   Hourly - Graph forecast

Terminal Information Board

Youngstown-Warren Regional Airport

 

FAA details


000
FTUS41 KCLE 160525
TAFYNG
TAF
KYNG 160525Z 1606/1706 10005KT P6SM SKC
FM161500 06003KT P6SM SCT250
FM170300 09008KT P6SM BKN250=

24 hours of observations

7-day forecast

Hourly - Tabular forecast   Hourly - Graph forecast

Terminal Information Board

Erie International Airport

 

FAA details


000
FTUS41 KCLE 160525
TAFERI
TAF
KERI 160525Z 1606/1706 10003KT P6SM SKC
FM161500 03008KT P6SM SCT250
FM170000 08008KT P6SM BKN250=

24 hours of observations

7-day forecast

Hourly - Tabular Forecast  Hourly - Graph forecast

Terminal Information Board

The National Weather Service is Cleveland is responsible for the Terminal Areodome Forecasts for seven area airports in northern Ohio and northwest Pennsylvania.  Routine issuance times are by 00Z, 06Z, 12Z, and 18Z with amendments, as needed.

Latest Surface Analysis

Additional Current Conditions

Satellite

Radar
 
 

 

Center Weather Service Unit, Oberlin/ZOB

CWA/MIS    

 

The National Weather Service Center Weather Service Unit in Oberlin is responsible for the airspace above northern Ohio and northwest Pennsylvania and ajoining areas.

 

Aviaiton Weather Center National, AWC

AIRMETS & SIGMETS